Woodboro, Wisconsin
Current Conditions -  °F | °C
As of 9:53 AM on Friday 31 Oct 2014 (Local Time) from KRHI Reporting Station
Overcast Overcast  
Wind Chill: 17°   Ceiling: 3200
Heat Index: 28°   Visibility: 9mi
Dew Point: 21°   Wind: 13mph
Humidity: 75%   Direction: 360°N
Pressure: 30.37"   Gusts: 22mph
Location:  45.6521°N, 89.3386°W
Report Text: KRHI 311453Z AUTO 36011G19KT 330V050 9SM SCT024 BKN032 OVC040 M02/M06 A3037 RMK AO2 SNB32E48 SLP306 P0000 60000 T10221061 53025
Loading
Personal Weather Stations






























Interactive Weather Map
Tropical Storm Tracking
New forecast layout! Learn more

10-Day Weather Forecast

Advertisements
Track Severe Weather on mobile